Time;durP1;ratioP1;P1;durP2;ratioP2;P2;SDS_P1;SDS_P2;PMS_P1;PMS_P2;Temp;Humidity;BMP_temperature;BMP_pressure;BME280_temperature;BME280_humidity;BME280_pressure;Samples;Min_cycle;Max_cycle;Signal;HPM_P1;HPM_P2
2021/11/20 00:02:25;;;;;;;4.18;3.78;;;;;;;5.74;100.00;100207.19;4965031;28;20053;-72
2021/11/20 00:04:52;;;;;;;3.15;2.95;;;;;;;5.76;100.00;100210.69;4973412;28;20287;-72
2021/11/20 00:07:18;;;;;;;5.72;3.47;;;;;;;5.90;100.00;100212.75;4988039;28;20380;-71
2021/11/20 00:09:44;;;;;;;5.03;3.08;;;;;;;5.91;100.00;100217.09;4973069;28;20109;-72
2021/11/20 00:12:16;;;;;;;4.55;2.95;;;;;;;5.92;100.00;100211.13;4973164;28;20026;-72
2021/11/20 00:14:41;;;;;;;5.60;3.05;;;;;;;5.91;100.00;100211.06;4973279;28;20037;-72
2021/11/20 00:17:07;;;;;;;3.20;2.90;;;;;;;5.88;100.00;100210.97;4973088;28;20114;-71
2021/11/20 00:19:33;;;;;;;6.53;3.45;;;;;;;5.84;100.00;100210.00;4972965;28;20029;-72
2021/11/20 00:22:09;;;;;;;4.47;3.30;;;;;;;5.84;100.00;100209.16;4972919;28;20031;-72
2021/11/20 00:24:48;;;;;;;3.05;2.78;;;;;;;5.93;100.00;100207.69;4973044;28;20063;-72
2021/11/20 00:27:21;;;;;;;8.95;2.90;;;;;;;5.87;100.00;100210.09;4973288;28;20031;-72
2021/11/20 00:30:13;;;;;;;6.28;2.90;;;;;;;5.86;100.00;100213.50;4965230;28;20039;-72
2021/11/20 00:32:56;;;;;;;2.90;2.38;;;;;;;6.09;100.00;100213.19;4964834;28;20495;-71
2021/11/20 00:35:25;;;;;;;3.92;3.55;;;;;;;6.07;99.73;100217.44;4973059;28;20106;-72
2021/11/20 00:37:51;;;;;;;3.03;2.15;;;;;;;6.18;99.53;100210.84;4973030;28;20030;-71
2021/11/20 00:40:22;;;;;;;4.28;2.35;;;;;;;6.25;99.03;100206.72;4972835;28;20495;-71
2021/11/20 00:42:47;;;;;;;5.07;3.17;;;;;;;6.26;98.86;100209.31;4972702;28;20027;-71
2021/11/20 00:45:13;;;;;;;2.65;1.95;;;;;;;6.25;99.71;100204.16;4972820;28;20038;-71
2021/11/20 00:47:39;;;;;;;3.95;2.75;;;;;;;6.35;99.81;100203.50;4971474;28;20023;-71
2021/11/20 00:50:07;;;;;;;3.42;2.95;;;;;;;6.18;99.43;100201.41;4972610;28;20480;-72
2021/11/20 00:52:32;;;;;;;3.13;2.70;;;;;;;6.11;99.92;100203.84;4972854;28;20065;-71
2021/11/20 00:54:57;;;;;;;4.88;4.38;;;;;;;5.98;100.00;100204.38;4972784;28;20046;-71
2021/11/20 00:57:23;;;;;;;4.22;3.60;;;;;;;5.93;100.00;100205.13;4972698;28;20031;-71
2021/11/20 00:59:48;;;;;;;3.25;2.83;;;;;;;5.95;100.00;100206.84;4967419;28;20023;-71
2021/11/20 08:00:56;;;;;;;3.20;2.50;;;;;;;6.38;100.00;99911.00;5749819;23;20511;-74
2021/11/20 08:03:23;;;;;;;2.10;2.00;;;;;;;6.39;99.29;99907.59;4978723;28;20043;-74
2021/11/20 08:05:50;;;;;;;3.42;3.20;;;;;;;6.32;99.96;99900.59;4933339;28;20579;-74
2021/11/20 08:08:16;;;;;;;6.38;3.97;;;;;;;6.31;100.00;99909.16;4953846;28;20045;-74
2021/11/20 08:10:42;;;;;;;3.88;2.30;;;;;;;6.41;99.88;99899.88;4953811;28;20532;-74
2021/11/20 08:13:07;;;;;;;8.70;3.78;;;;;;;6.34;99.85;99896.34;4954014;29;20480;-74
2021/11/20 08:15:34;;;;;;;3.67;2.55;;;;;;;6.56;99.74;99900.13;4961785;23;20070;-70
2021/11/20 08:18:00;;;;;;;4.43;3.38;;;;;;;6.44;99.04;99895.66;4954082;28;20066;-72
2021/11/20 08:20:31;;;;;;;7.72;3.75;;;;;;;6.56;98.90;99894.09;4953631;28;20023;-72
2021/11/20 08:22:57;;;;;;;7.82;4.03;;;;;;;6.55;98.41;99892.38;4954135;28;20035;-72
2021/11/20 08:25:25;;;;;;;5.53;4.10;;;;;;;6.50;98.54;99888.88;4953786;28;20027;-73
2021/11/20 08:27:51;;;;;;;5.03;4.47;;;;;;;6.56;97.82;99883.81;4954025;28;20114;-72
2021/11/20 08:30:20;;;;;;;4.93;3.40;;;;;;;6.61;98.35;99877.03;4957469;28;20026;-73
2021/11/20 08:32:47;;;;;;;5.47;2.92;;;;;;;6.57;97.90;99875.25;4964943;28;20035;-74
2021/11/20 08:35:13;;;;;;;3.70;2.72;;;;;;;6.72;97.63;99870.34;4973045;28;20081;-72
2021/11/20 08:37:39;;;;;;;3.25;3.00;;;;;;;6.85;96.60;99867.09;4973005;28;20023;-75
2021/11/20 08:40:08;;;;;;;5.28;3.17;;;;;;;6.85;95.68;99867.09;4972976;28;20552;-75
2021/11/20 08:42:35;;;;;;;7.80;3.58;;;;;;;6.76;95.86;99866.94;4973033;28;20035;-74
2021/11/20 08:45:03;;;;;;;5.78;3.83;;;;;;;6.82;95.47;99861.91;4973017;28;20098;-71
2021/11/20 08:47:29;;;;;;;2.63;2.15;;;;;;;6.89;94.71;99858.56;4972774;28;20038;-76
2021/11/20 08:49:54;;;;;;;4.28;3.08;;;;;;;6.77;95.12;99858.41;4972863;28;20435;-74
2021/11/20 08:52:20;;;;;;;4.22;3.40;;;;;;;6.70;94.69;99857.44;4973002;28;20039;-74
2021/11/20 08:54:45;;;;;;;7.00;2.85;;;;;;;6.81;95.07;99847.28;4973011;28;20019;-73
2021/11/20 08:57:11;;;;;;;2.80;2.13;;;;;;;6.90;95.11;99844.84;4972925;28;20058;-71
2021/11/20 08:59:38;;;;;;;5.38;3.88;;;;;;;6.87;95.13;99843.94;4965414;28;20172;-72
2021/11/20 09:02:22;;;;;;;3.63;3.33;;;;;;;7.02;93.98;99840.72;4953446;28;20504;-80
2021/11/20 09:04:56;;;;;;;3.78;3.00;;;;;;;7.12;94.02;99850.31;4953749;28;20047;-82
2021/11/20 09:07:42;;;;;;;5.82;3.60;;;;;;;7.26;92.74;99843.63;4953565;28;20030;-75
2021/11/20 09:10:13;;;;;;;11.20;4.88;;;;;;;7.14;92.49;99843.44;4953028;29;20043;-70
2021/11/20 09:12:50;;;;;;;3.35;2.90;;;;;;;7.19;92.22;99842.66;4953476;28;20027;-76
2021/11/20 09:15:18;;;;;;;3.67;3.20;;;;;;;7.26;92.03;99841.03;4953489;28;20035;-73
2021/11/20 09:17:43;;;;;;;5.78;3.67;;;;;;;7.14;91.53;99838.28;4953358;29;20131;-69
2021/11/20 09:20:10;;;;;;;3.95;3.58;;;;;;;7.38;91.00;99838.59;4954715;28;20106;-74
2021/11/20 09:22:36;;;;;;;5.10;2.83;;;;;;;7.51;90.97;99844.75;4956784;28;20036;-74
2021/11/20 09:25:03;;;;;;;6.47;3.58;;;;;;;7.74;90.08;99837.28;4956841;28;20031;-74
2021/11/20 09:27:28;;;;;;;3.95;3.15;;;;;;;7.79;89.81;99845.06;4956924;28;20031;-73
2021/11/20 09:29:54;;;;;;;6.70;1.90;;;;;;;7.64;89.03;99838.00;4958741;28;20504;-73
2021/11/20 09:32:20;;;;;;;5.93;3.25;;;;;;;7.76;89.47;99830.41;4967971;28;20020;-76
2021/11/20 09:34:45;;;;;;;7.05;4.10;;;;;;;7.87;88.11;99833.97;4975835;28;20230;-76
2021/11/20 09:37:10;;;;;;;4.15;3.25;;;;;;;7.59;90.03;99837.09;4975923;28;20089;-75
2021/11/20 09:39:39;;;;;;;4.95;2.65;;;;;;;7.74;90.37;99826.97;4975703;28;20023;-74
2021/11/20 09:42:27;;;;;;;4.57;3.35;;;;;;;7.55;89.80;99832.78;4976002;28;20031;-73
2021/11/20 09:44:56;;;;;;;8.02;2.78;;;;;;;7.69;89.79;99828.63;4975759;28;20041;-72
2021/11/20 09:47:28;;;;;;;4.28;3.00;;;;;;;7.79;89.75;99825.31;4975909;28;20026;-72
2021/11/20 09:50:00;;;;;;;5.28;2.67;;;;;;;7.64;89.29;99827.69;4975436;28;20118;-74
2021/11/20 09:52:25;;;;;;;6.47;3.08;;;;;;;7.60;89.32;99824.25;4975732;28;20026;-79
2021/11/20 09:54:53;;;;;;;4.53;3.05;;;;;;;7.57;89.70;99824.19;4975452;28;20087;-80
2021/11/20 09:57:37;;;;;;;4.22;2.50;;;;;;;7.62;89.91;99816.50;4975594;28;20037;-80
2021/11/20 10:00:11;;;;;;;3.33;3.05;;;;;;;7.77;89.55;99806.34;4967837;28;20031;-82
2021/11/20 10:02:40;;;;;;;2.45;2.22;;;;;;;7.70;89.26;99814.88;4967371;28;20804;-82
2021/11/20 10:05:08;;;;;;;3.33;2.55;;;;;;;7.89;88.26;99803.91;4975213;28;20038;-74
2021/11/20 10:08:05;;;;;;;3.92;2.55;;;;;;;8.12;87.91;99808.38;4975402;28;20467;-72
2021/11/20 10:10:46;;;;;;;5.00;2.50;;;;;;;7.92;88.55;99808.19;4975161;28;20031;-72
2021/11/20 10:13:13;;;;;;;3.63;3.33;;;;;;;8.31;87.98;99801.66;4975428;28;20066;-75
2021/11/20 10:15:44;;;;;;;3.17;2.33;;;;;;;8.26;87.30;99788.69;4975139;28;20391;-74
2021/11/20 10:18:12;;;;;;;2.75;2.35;;;;;;;8.50;87.14;99786.31;4975309;28;20027;-74
2021/11/20 10:20:42;;;;;;;3.60;2.38;;;;;;;8.61;85.44;99782.97;4974841;28;20057;-75
2021/11/20 10:23:10;;;;;;;2.63;2.42;;;;;;;8.42;84.69;99787.16;4975201;28;20027;-73
2021/11/20 10:26:00;;;;;;;2.53;2.33;;;;;;;8.32;85.49;99775.84;4975171;28;20030;-73
2021/11/20 10:28:39;;;;;;;3.10;2.55;;;;;;;8.27;85.08;99772.38;4975120;28;20018;-71
2021/11/20 10:31:15;;;;;;;3.08;1.98;;;;;;;8.30;85.90;99772.38;4963365;28;20022;-75
2021/11/20 10:33:44;;;;;;;3.08;2.03;;;;;;;8.46;84.28;99771.69;4971802;28;20623;-76
2021/11/20 10:36:19;;;;;;;7.72;2.60;;;;;;;8.47;84.88;99764.81;4974948;28;20030;-75
2021/11/20 10:39:07;;;;;;;4.10;2.88;;;;;;;8.48;84.21;99754.47;4974846;28;20031;-75
2021/11/20 10:41:57;;;;;;;2.40;2.17;;;;;;;8.27;86.14;99767.22;4969113;28;20038;-75
2021/11/20 10:44:41;;;;;;;2.85;1.75;;;;;;;8.21;86.65;99751.66;4975006;28;20041;-75
2021/11/20 10:47:07;;;;;;;3.15;2.83;;;;;;;8.02;88.06;99749.78;4974737;28;20030;-75
2021/11/20 10:50:06;;;;;;;5.55;3.35;;;;;;;7.88;87.57;99753.16;4974386;28;20030;-75
2021/11/20 10:52:51;;;;;;;2.60;2.40;;;;;;;7.76;88.82;99752.16;4974527;28;20037;-75
2021/11/20 10:55:19;;;;;;;3.00;2.78;;;;;;;8.01;89.10;99748.06;4974504;28;20030;-75
2021/11/20 10:58:21;;;;;;;3.13;2.13;;;;;;;8.06;88.70;99736.94;4974466;28;20037;-80
2021/11/20 11:00:46;;;;;;;4.00;2.30;;;;;;;8.08;89.29;99734.38;4965261;28;20019;-74
2021/11/20 11:03:38;;;;;;;3.30;2.45;;;;;;;7.98;88.43;99733.44;4967514;28;20448;-74
2021/11/20 11:06:19;;;;;;;4.68;3.42;;;;;;;8.02;87.76;99723.97;4974331;28;20027;-74
2021/11/20 11:08:56;;;;;;;4.25;3.30;;;;;;;7.91;87.97;99713.59;4974110;28;20037;-74
2021/11/20 11:11:35;;;;;;;3.28;2.85;;;;;;;7.95;87.13;99718.78;4974128;28;20476;-73
2021/11/20 11:14:00;;;;;;;3.17;1.88;;;;;;;7.91;86.99;99721.31;4974030;28;20034;-73
2021/11/20 11:16:46;;;;;;;2.47;2.28;;;;;;;7.93;88.04;99712.75;4973951;28;20032;-73
2021/11/20 11:19:29;;;;;;;2.78;2.55;;;;;;;7.88;87.54;99709.28;4973868;28;20038;-73
2021/11/20 11:22:01;;;;;;;5.30;2.85;;;;;;;7.99;86.44;99706.78;4973969;28;20059;-73
2021/11/20 11:24:55;;;;;;;2.40;1.95;;;;;;;7.86;86.53;99690.31;4974070;28;20031;-74
2021/11/20 11:27:48;;;;;;;3.10;2.78;;;;;;;8.09;86.16;99697.38;4974062;28;20416;-74
2021/11/20 11:30:24;;;;;;;3.35;1.77;;;;;;;8.07;86.49;99687.03;4918252;28;20394;-74
2021/11/20 11:32:50;;;;;;;3.17;2.58;;;;;;;8.18;85.71;99674.22;4965894;28;20085;-73
2021/11/20 11:35:43;;;;;;;1.55;1.27;;;;;;;8.22;85.14;99686.28;4973780;28;20416;-73
2021/11/20 11:38:41;;;;;;;2.33;1.95;;;;;;;8.30;85.24;99676.84;4927043;28;20384;-74
2021/11/20 11:41:12;;;;;;;2.28;2.00;;;;;;;8.34;85.70;99676.03;4982658;28;20106;-74
2021/11/20 11:43:50;;;;;;;3.00;2.22;;;;;;;8.36;84.68;99664.00;4953161;28;20404;-74
2021/11/20 11:46:45;;;;;;;2.72;1.85;;;;;;;8.33;84.39;99658.81;4954363;28;20439;-74
2021/11/20 11:49:38;;;;;;;1.98;1.88;;;;;;;8.32;83.98;99653.66;4954004;28;20029;-74
2021/11/20 11:52:38;;;;;;;1.33;1.33;;;;;;;8.53;83.94;99650.31;4954293;29;20035;-74
2021/11/20 11:55:39;;;;;;;2.75;2.10;;;;;;;8.56;83.82;99642.56;4954097;28;20062;-74
2021/11/20 11:58:19;;;;;;;1.48;1.38;;;;;;;8.78;82.46;99630.59;4954281;29;20114;-74
2021/11/20 12:01:04;;;;;;;;;;;;;;;8.75;81.60;99626.28;4962150;28;20364;-73
2021/11/20 12:03:43;;;;;;;2.40;1.67;;;;;;;8.48;81.68;99627.91;4956173;28;20024;-74
2021/11/20 12:06:27;;;;;;;2.88;2.03;;;;;;;8.60;81.32;99610.72;4953832;28;20098;-74
2021/11/20 12:08:54;;;;;;;0.93;0.90;;;;;;;8.67;80.08;99612.50;4954072;29;20088;-73
2021/11/20 12:11:28;;;;;;;1.55;1.45;;;;;;;8.50;81.46;99608.13;4953896;29;20034;-73
2021/11/20 12:14:14;;;;;;;0.98;0.98;;;;;;;8.90;81.54;99592.75;4953961;29;20064;-73
2021/11/20 12:16:52;;;;;;;1.38;1.02;;;;;;;8.92;80.00;99596.19;4953721;28;20027;-73
2021/11/20 12:19:25;;;;;;;2.22;1.65;;;;;;;8.67;80.02;99592.69;4953786;29;20027;-73
2021/11/20 12:22:00;;;;;;;3.65;1.90;;;;;;;8.97;80.15;99588.44;4953687;29;20027;-73
2021/11/20 12:24:40;;;;;;;2.00;1.13;;;;;;;9.01;79.35;99579.84;4954126;28;20027;-73
2021/11/20 12:27:26;;;;;;;1.73;1.63;;;;;;;8.97;79.05;99576.38;4953983;28;20424;-73
2021/11/20 12:30:11;;;;;;;8.23;5.53;;;;;;;8.96;79.82;99569.50;4955462;28;20035;-73
2021/11/20 12:32:53;;;;;;;2.17;1.60;;;;;;;8.66;80.21;99564.28;4960594;28;20374;-74
2021/11/20 12:35:43;;;;;;;1.02;1.00;;;;;;;8.66;80.59;99572.03;4955956;28;20025;-73
2021/11/20 12:38:28;;;;;;;0.95;0.90;;;;;;;8.64;80.23;99555.63;4953761;28;20114;-74
2021/11/20 12:41:37;;;;;;;1.92;1.08;;;;;;;8.72;80.35;99549.63;4953341;28;20043;-74
2021/11/20 12:44:12;;;;;;;;;;;;;;;8.84;80.00;99546.19;4954132;29;20425;-74
2021/11/20 12:47:11;;;;;;;2.00;1.13;;;;;;;8.93;80.06;99543.63;4953505;28;19936;-74
2021/11/20 12:49:42;;;;;;;0.85;0.85;;;;;;;8.67;80.25;99541.03;4953611;28;20035;-74
2021/11/20 12:52:30;;;;;;;1.55;1.45;;;;;;;8.74;79.82;99536.72;4953579;29;20028;-74
2021/11/20 12:54:58;;;;;;;1.35;1.25;;;;;;;8.67;80.67;99537.56;4956174;28;20037;-74
2021/11/20 12:57:42;;;;;;;2.30;2.10;;;;;;;8.62;81.05;99531.53;4957218;28;20102;-74
2021/11/20 13:00:07;;;;;;;2.63;1.92;;;;;;;8.47;81.46;99528.06;4960812;28;20030;-74
2021/11/20 13:02:55;;;;;;;1.75;1.60;;;;;;;8.40;81.64;99521.13;4964176;28;20485;-74
2021/11/20 13:05:45;;;;;;;1.70;1.58;;;;;;;8.43;81.61;99516.00;4959344;28;20015;-73
2021/11/20 13:08:22;;;;;;;;;;;;;;;8.34;81.21;99512.50;4957448;28;20027;-75
2021/11/20 13:11:19;;;;;;;1.70;1.25;;;;;;;8.39;81.29;99503.94;4956934;29;20339;-74
2021/11/20 13:14:00;;;;;;;4.88;2.78;;;;;;;8.32;81.24;99507.34;4956834;28;20059;-76
2021/11/20 13:16:25;;;;;;;1.90;1.80;;;;;;;8.42;81.12;99496.19;4956739;28;20035;-77
2021/11/20 13:18:58;;;;;;;2.00;1.90;;;;;;;8.63;81.26;99486.75;4956833;29;20500;-77
2021/11/20 13:21:42;;;;;;;5.47;1.50;;;;;;;8.44;80.63;99481.56;4956746;29;20130;-74
2021/11/20 13:24:10;;;;;;;1.63;1.52;;;;;;;8.64;79.69;99478.16;4956707;28;20023;-74
2021/11/20 13:26:58;;;;;;;1.45;1.35;;;;;;;8.60;79.06;99471.25;4956720;28;20117;-74
2021/11/20 13:29:27;;;;;;;3.13;1.75;;;;;;;8.55;78.88;99480.72;4956475;29;20485;-74
2021/11/20 13:31:52;;;;;;;2.35;1.63;;;;;;;8.41;79.95;99470.34;4966417;28;20114;-72
2021/11/20 13:34:18;;;;;;;2.47;2.28;;;;;;;8.53;80.17;99464.38;4965781;28;20143;-72
2021/11/20 13:36:43;;;;;;;2.33;1.90;;;;;;;8.43;79.92;99463.50;4973274;28;20388;-72
2021/11/20 13:39:09;;;;;;;2.53;1.85;;;;;;;8.58;79.60;99460.06;4975483;28;20053;-72
2021/11/20 13:41:35;;;;;;;1.58;1.38;;;;;;;8.48;79.54;99457.47;4975782;28;20464;-72
2021/11/20 13:44:01;;;;;;;1.35;1.27;;;;;;;8.37;79.88;99459.19;4975693;28;20120;-72
2021/11/20 13:46:27;;;;;;;1.70;1.60;;;;;;;8.36;80.25;99452.28;4975625;28;20126;-72
2021/11/20 13:48:55;;;;;;;1.95;1.85;;;;;;;8.17;81.44;99445.31;4975622;28;20026;-72
2021/11/20 13:51:29;;;;;;;2.90;1.63;;;;;;;8.20;81.01;99445.34;4975836;28;20014;-72
2021/11/20 13:53:58;;;;;;;2.65;1.13;;;;;;;8.27;81.75;99441.91;4975663;28;20022;-72
2021/11/20 13:56:25;;;;;;;3.13;2.47;;;;;;;8.20;81.10;99437.59;4975646;28;20026;-74
2021/11/20 13:59:06;;;;;;;2.10;1.42;;;;;;;8.15;80.99;99434.13;4974360;28;20507;-74
2021/11/20 14:01:36;;;;;;;1.35;1.17;;;;;;;8.23;81.75;99440.19;4964080;28;20058;-74
2021/11/20 14:04:06;;;;;;;0.80;0.80;;;;;;;8.27;81.56;99441.03;4967371;28;20046;-74
2021/11/20 14:06:31;;;;;;;;;;;;;;;8.21;80.79;99431.56;4970903;28;20090;-74
2021/11/20 14:09:01;;;;;;;2.05;1.02;;;;;;;8.15;80.99;99428.97;4975342;28;19918;-74
2021/11/20 14:11:27;;;;;;;;;;;;;;;8.17;81.48;99427.25;4975857;28;20543;-74
2021/11/20 14:13:55;;;;;;;2.65;1.35;;;;;;;8.17;81.19;99429.81;4975345;28;19914;-72
2021/11/20 14:16:36;;;;;;;0.50;0.50;;;;;;;8.35;80.74;99429.88;5003519;23;20067;-75
2021/11/20 14:19:04;;;;;;;1.02;1.02;;;;;;;8.34;80.39;99427.28;4970245;28;20031;-75
2021/11/20 14:21:31;;;;;;;0.75;0.75;;;;;;;8.28;81.08;99422.97;4955821;28;20408;-75
2021/11/20 14:24:03;;;;;;;0.75;0.75;;;;;;;8.31;81.34;99417.81;4955978;28;20577;-75
2021/11/20 14:26:30;;;;;;;0.77;0.77;;;;;;;8.25;80.81;99422.97;4955724;28;20026;-75
2021/11/20 14:29:02;;;;;;;1.23;1.13;;;;;;;8.37;81.23;99422.19;4955575;28;20031;-75
2021/11/20 14:31:30;;;;;;;1.15;0.98;;;;;;;8.38;80.80;99418.72;4963545;28;20078;-75
2021/11/20 14:34:05;;;;;;;1.00;1.00;;;;;;;8.59;79.94;99412.72;4966905;28;20025;-75
2021/11/20 14:36:33;;;;;;;0.65;0.63;;;;;;;8.40;80.20;99407.53;4970451;28;20480;-75
2021/11/20 14:38:59;;;;;;;0.70;0.70;;;;;;;8.16;80.82;99408.31;4974756;28;20027;-74
2021/11/20 14:41:54;;;;;;;0.90;0.90;;;;;;;7.97;81.28;99396.22;4974669;28;20029;-71
2021/11/20 14:44:23;;;;;;;1.23;1.13;;;;;;;7.93;81.28;99395.38;4966228;28;20074;-71
2021/11/20 14:47:05;;;;;;;1.38;1.25;;;;;;;7.95;81.23;99393.66;4974594;28;20026;-71
2021/11/20 14:49:35;;;;;;;3.17;1.38;;;;;;;7.96;81.83;99392.78;4974565;28;20018;-70
2021/11/20 14:52:01;;;;;;;1.67;1.58;;;;;;;7.99;80.82;99390.22;4974604;28;20019;-71
2021/11/20 14:54:28;;;;;;;1.52;1.30;;;;;;;7.95;81.09;99388.50;4974623;28;20023;-70
2021/11/20 14:57:07;;;;;;;1.85;1.27;;;;;;;7.92;81.97;99383.31;4974375;28;20495;-75
2021/11/20 14:59:34;;;;;;;1.88;1.38;;;;;;;7.88;82.24;99381.63;4967445;28;20050;-75
2021/11/20 15:02:00;;;;;;;1.50;1.25;;;;;;;7.96;81.49;99387.63;4965801;28;20506;-71
2021/11/20 15:04:25;;;;;;;1.58;1.42;;;;;;;7.84;82.11;99377.31;4958790;28;20106;-69
2021/11/20 15:06:50;;;;;;;4.38;3.65;;;;;;;7.83;83.09;99378.16;4971052;28;20086;-69
2021/11/20 15:09:16;;;;;;;2.42;2.03;;;;;;;7.69;82.41;99369.53;4974387;28;20050;-69
2021/11/20 15:11:41;;;;;;;0.88;0.88;;;;;;;7.68;83.72;99365.19;4974438;28;20022;-69
2021/11/20 15:14:07;;;;;;;1.15;1.15;;;;;;;7.55;83.28;99371.19;4974252;28;20030;-69
2021/11/20 15:16:32;;;;;;;4.63;2.33;;;;;;;7.51;83.67;99369.44;4973805;28;20035;-74
2021/11/20 15:18:57;;;;;;;2.30;1.98;;;;;;;7.57;83.46;99364.31;4973333;28;20030;-74
2021/11/20 15:21:23;;;;;;;7.57;5.43;;;;;;;7.45;83.89;99363.41;4974178;28;20444;-71
2021/11/20 15:23:49;;;;;;;3.78;2.42;;;;;;;7.42;84.28;99355.66;4972830;28;20041;-73
2021/11/20 15:26:16;;;;;;;1.75;1.63;;;;;;;7.45;84.28;99350.53;4973956;28;20023;-70
2021/11/20 15:28:41;;;;;;;4.25;2.35;;;;;;;7.51;84.57;99356.56;4973867;28;20492;-71
2021/11/20 15:31:07;;;;;;;2.22;1.88;;;;;;;7.50;84.27;99349.69;4962487;28;20102;-74
2021/11/20 15:33:32;;;;;;;2.10;1.83;;;;;;;7.39;84.54;99358.22;4964974;28;20117;-69
2021/11/20 15:35:59;;;;;;;1.35;1.17;;;;;;;7.43;83.47;99361.69;4965771;28;20453;-69
2021/11/20 15:38:24;;;;;;;2.38;1.70;;;;;;;7.38;85.40;99353.06;4973954;28;20074;-74
2021/11/20 15:40:50;;;;;;;1.63;1.52;;;;;;;7.35;84.78;99348.78;4973610;28;20026;-74
2021/11/20 15:43:15;;;;;;;2.85;1.75;;;;;;;7.38;84.41;99353.91;4973724;28;20027;-73
2021/11/20 15:45:41;;;;;;;1.77;1.67;;;;;;;7.32;84.75;99343.59;4973614;28;20026;-69
2021/11/20 15:48:06;;;;;;;1.83;1.73;;;;;;;7.28;84.84;99335.84;4973629;28;20031;-74
2021/11/20 15:50:31;;;;;;;1.15;1.08;;;;;;;7.25;85.42;99328.94;4973384;28;20586;-70
2021/11/20 15:52:57;;;;;;;2.30;2.10;;;;;;;7.19;84.95;99324.63;4973664;28;20014;-74
2021/11/20 15:55:23;;;;;;;4.78;2.05;;;;;;;7.17;85.69;99328.06;4973413;28;20499;-70
2021/11/20 15:57:48;;;;;;;2.40;1.70;;;;;;;7.19;85.42;99316.03;4973539;28;20057;-69
2021/11/20 16:00:16;;;;;;;0.73;0.73;;;;;;;7.13;85.82;99311.72;4965785;28;20022;-69
2021/11/20 16:02:44;;;;;;;1.15;1.10;;;;;;;7.10;85.18;99303.13;4960473;28;20031;-70
2021/11/20 16:05:09;;;;;;;1.67;1.08;;;;;;;7.14;85.25;99291.97;4965243;28;20023;-74
2021/11/20 16:07:35;;;;;;;1.30;1.17;;;;;;;7.09;85.60;99298.81;4973583;28;20023;-69
2021/11/20 16:10:00;;;;;;;1.52;1.42;;;;;;;7.13;85.85;99287.69;4973331;28;20026;-69
2021/11/20 16:12:25;;;;;;;2.03;1.80;;;;;;;7.16;86.38;99291.13;4973350;28;20023;-74
2021/11/20 16:14:51;;;;;;;1.63;1.52;;;;;;;7.14;86.10;99289.38;4973442;28;20400;-70
2021/11/20 16:17:17;;;;;;;1.13;1.02;;;;;;;7.11;86.14;99297.13;4972982;28;20526;-74
2021/11/20 16:19:42;;;;;;;1.55;1.48;;;;;;;7.13;86.75;99296.25;4973162;28;20046;-74
2021/11/20 16:22:08;;;;;;;1.65;1.55;;;;;;;7.06;86.12;99296.22;4973119;28;20093;-73
2021/11/20 16:24:35;;;;;;;1.20;1.20;;;;;;;7.10;86.67;99285.06;4973237;28;20061;-73
2021/11/20 16:27:00;;;;;;;1.40;1.30;;;;;;;7.15;85.92;99283.38;4973211;28;20067;-72
2021/11/20 16:29:25;;;;;;;5.25;3.88;;;;;;;7.12;86.35;99278.22;4969236;28;20090;-70
2021/11/20 16:31:51;;;;;;;1.40;1.30;;;;;;;7.25;86.19;99273.97;4967462;28;20030;-72
2021/11/20 16:34:16;;;;;;;2.05;1.45;;;;;;;7.24;87.44;99287.72;4967466;28;20524;-69
2021/11/20 16:36:42;;;;;;;1.38;1.33;;;;;;;7.29;86.72;99279.13;4974096;28;20498;-73
2021/11/20 16:39:14;;;;;;;1.80;1.20;;;;;;;7.17;86.04;99271.38;4977013;28;20031;-70
2021/11/20 16:41:41;;;;;;;1.40;1.30;;;;;;;7.15;86.45;99275.66;4977023;28;20446;-72
2021/11/20 16:44:08;;;;;;;1.40;1.25;;;;;;;7.14;86.57;99271.34;4976968;28;20098;-75
2021/11/20 16:46:34;;;;;;;1.88;1.77;;;;;;;7.03;86.81;99267.88;4976980;28;20422;-73
2021/11/20 16:48:59;;;;;;;3.25;2.45;;;;;;;7.05;86.31;99266.16;4975858;28;20102;-69
2021/11/20 16:54:01;;;;;;;1.63;1.52;;;;;;;7.12;85.62;99262.78;4977009;28;20037;-73
2021/11/20 16:56:27;;;;;;;3.58;1.73;;;;;;;7.15;85.40;99262.75;4976685;28;20451;-68
2021/11/20 16:58:52;;;;;;;2.22;1.60;;;;;;;7.10;86.12;99259.31;4975097;28;20031;-71
2021/11/20 17:01:17;;;;;;;2.00;1.85;;;;;;;7.06;86.43;99257.56;4965064;28;20120;-74
2021/11/20 17:03:43;;;;;;;3.13;1.77;;;;;;;7.07;87.39;99249.00;4967102;28;20041;-69
2021/11/20 17:06:08;;;;;;;1.55;1.35;;;;;;;7.07;87.60;99249.88;4969123;28;20081;-68
2021/11/20 17:08:33;;;;;;;3.50;2.38;;;;;;;7.06;86.86;99237.84;4976443;28;20069;-69
2021/11/20 17:10:58;;;;;;;2.13;1.70;;;;;;;7.09;86.12;99239.56;4976337;28;20544;-68
2021/11/20 17:13:24;;;;;;;2.28;2.05;;;;;;;7.05;86.59;99236.09;4976342;28;20027;-68
2021/11/20 17:15:50;;;;;;;3.38;2.75;;;;;;;7.00;87.47;99242.97;4976186;28;20081;-68
2021/11/20 17:18:16;;;;;;;3.85;2.63;;;;;;;7.00;87.16;99242.09;4976282;28;20550;-68
2021/11/20 17:20:42;;;;;;;2.10;1.90;;;;;;;6.98;87.22;99239.53;4976091;28;20468;-68
2021/11/20 17:23:07;;;;;;;6.82;2.35;;;;;;;6.89;87.81;99234.34;4976157;28;20042;-70
2021/11/20 17:25:33;;;;;;;1.98;1.65;;;;;;;6.89;87.67;99227.47;4976064;28;20456;-70
2021/11/20 17:27:58;;;;;;;1.88;1.75;;;;;;;6.91;87.88;99223.19;4976061;28;20034;-68
2021/11/20 17:30:25;;;;;;;2.38;2.17;;;;;;;6.97;87.53;99221.50;4968264;28;20480;-70
2021/11/20 17:32:50;;;;;;;4.40;1.88;;;;;;;6.96;87.42;99218.03;4963258;28;20023;-68
2021/11/20 17:35:16;;;;;;;2.80;1.98;;;;;;;6.97;87.59;99211.19;4967857;28;20050;-68
2021/11/20 17:37:42;;;;;;;1.90;1.80;;;;;;;6.95;87.93;99206.00;4976018;28;20030;-68
2021/11/20 17:40:08;;;;;;;3.42;2.72;;;;;;;6.93;88.56;99206.03;4974674;28;20038;-74
2021/11/20 17:42:34;;;;;;;3.88;2.70;;;;;;;6.98;88.73;99200.88;4975805;28;20038;-74
2021/11/20 17:44:59;;;;;;;4.30;2.72;;;;;;;7.04;87.08;99206.03;4976005;28;20023;-74
2021/11/20 17:47:25;;;;;;;2.50;2.30;;;;;;;6.99;87.33;99197.44;4975852;28;20134;-74
2021/11/20 17:49:51;;;;;;;5.70;2.90;;;;;;;6.94;88.01;99197.44;4975692;28;20026;-73
2021/11/20 17:52:17;;;;;;;1.95;1.75;;;;;;;7.02;87.77;99194.03;4975821;28;20015;-73
2021/11/20 17:54:43;;;;;;;1.88;1.77;;;;;;;7.03;87.80;99195.75;4975577;28;20034;-74
2021/11/20 17:57:08;;;;;;;2.08;1.85;;;;;;;6.94;88.69;99197.44;4975638;28;20038;-73
2021/11/20 17:59:34;;;;;;;3.47;2.38;;;;;;;6.87;89.13;99187.97;4968394;28;20073;-73
2021/11/20 18:02:00;;;;;;;2.85;2.28;;;;;;;6.87;88.57;99184.53;4966886;28;20027;-73
2021/11/20 18:04:25;;;;;;;3.22;2.90;;;;;;;6.85;88.34;99187.09;4963130;28;20026;-73
2021/11/20 18:06:51;;;;;;;1.92;1.83;;;;;;;6.86;88.26;99186.22;4973949;28;20027;-73
2021/11/20 18:09:16;;;;;;;2.55;2.35;;;;;;;6.94;88.56;99187.13;4975307;28;20023;-73
2021/11/20 18:11:43;;;;;;;2.58;2.38;;;;;;;6.98;87.08;99182.84;4975375;28;20077;-76
2021/11/20 18:14:09;;;;;;;3.58;2.40;;;;;;;6.92;87.48;99190.56;4975397;28;20031;-73
2021/11/20 18:16:36;;;;;;;2.22;2.03;;;;;;;6.89;87.13;99183.69;4975104;28;20035;-73
2021/11/20 18:19:06;;;;;;;2.03;1.83;;;;;;;6.88;87.11;99181.97;4975227;28;20166;-72
2021/11/20 18:21:32;;;;;;;;;;;;;;;6.73;87.32;99170.75;4955925;28;20077;-73
2021/11/20 18:23:57;;;;;;;1.88;1.77;;;;;;;6.71;87.93;99168.16;4955750;28;19997;-73
2021/11/20 18:26:23;;;;;;;4.38;1.75;;;;;;;6.64;88.16;99169.84;4954875;28;20023;-72
2021/11/20 18:28:50;;;;;;;2.63;2.35;;;;;;;6.55;88.54;99166.38;4955601;28;20039;-72
2021/11/20 18:31:17;;;;;;;1.73;1.42;;;;;;;6.57;88.39;99162.09;4963451;28;20011;-72
2021/11/20 18:33:42;;;;;;;1.63;1.52;;;;;;;6.50;88.36;99157.78;4971724;28;20042;-73
2021/11/20 18:36:08;;;;;;;2.20;2.00;;;;;;;6.48;87.63;99159.47;4955128;28;20384;-73
2021/11/20 18:38:34;;;;;;;3.95;2.15;;;;;;;6.42;88.39;99158.59;4955459;28;20059;-73
2021/11/20 18:40:59;;;;;;;4.22;2.28;;;;;;;6.48;88.43;99147.50;4954343;28;20027;-72
2021/11/20 18:43:26;;;;;;;4.30;2.88;;;;;;;6.44;88.57;99148.31;4955572;28;20031;-73
2021/11/20 18:45:51;;;;;;;7.05;3.00;;;;;;;6.35;88.05;99148.28;4955520;28;20545;-72
2021/11/20 18:48:17;;;;;;;2.13;2.00;;;;;;;6.24;87.99;99145.66;4955541;28;20102;-73
2021/11/20 18:50:43;;;;;;;1.48;1.38;;;;;;;6.24;88.29;99142.19;4955309;28;20031;-73
2021/11/20 18:53:09;;;;;;;1.67;1.58;;;;;;;6.20;88.42;99146.50;4955049;28;20055;-73
2021/11/20 18:55:36;;;;;;;3.75;2.38;;;;;;;6.18;88.82;99145.59;4954233;28;20109;-73
2021/11/20 18:58:04;;;;;;;9.05;2.25;;;;;;;6.09;88.63;99141.28;4955048;28;20024;-72
2021/11/20 19:00:30;;;;;;;5.47;2.97;;;;;;;6.09;88.69;99141.28;4961811;28;20023;-73
2021/11/20 19:02:55;;;;;;;2.13;1.98;;;;;;;6.06;88.54;99130.13;4966257;28;20026;-72